Cedar Terrace, South Carolina
Current Conditions -  °F | °C
As of 10:53 PM on Saturday 20 Dec 2014 (Local Time) from KCUB Reporting Station
Overcast Overcast  
Wind Chill: 46°   Ceiling: 2400
Heat Index: 46°   Visibility: 10mi
Dew Point: 39°   Wind: 0mph
Humidity: 76%   Direction: NA
Pressure: 30.26"   Gusts: NA
Location:  33.9488°N, 80.9462°W
Report Text: KCUB 210353Z AUTO 00000KT 10SM OVC024 08/04 A3026 RMK AO2 SLP245 T00780039
Loading
Personal Weather Stations






























Interactive Weather Map New forecast layout! Learn more

10-Day Weather Forecast

Advertisements
Track Severe Weather on mobile